sensor_id;sensor_type;location;lat;lon;timestamp;temperature;humidity
20380;DHT22;10349;48.666;8.948;2023-10-19T00:00:46;10.80;99.90
20380;DHT22;10349;48.666;8.948;2023-10-19T00:03:15;10.80;99.90
20380;DHT22;10349;48.666;8.948;2023-10-19T00:05:44;10.90;99.90
20380;DHT22;10349;48.666;8.948;2023-10-19T00:08:13;10.90;99.90
20380;DHT22;10349;48.666;8.948;2023-10-19T00:10:50;10.90;99.90
20380;DHT22;10349;48.666;8.948;2023-10-19T00:13:37;11.00;99.90
20380;DHT22;10349;48.666;8.948;2023-10-19T00:16:06;11.00;99.90
20380;DHT22;10349;48.666;8.948;2023-10-19T00:18:42;11.00;99.90
20380;DHT22;10349;48.666;8.948;2023-10-19T00:21:08;11.00;99.90
20380;DHT22;10349;48.666;8.948;2023-10-19T00:23:57;11.00;99.90
20380;DHT22;10349;48.666;8.948;2023-10-19T00:26:27;11.00;99.90
20380;DHT22;10349;48.666;8.948;2023-10-19T00:29:00;11.00;99.90
20380;DHT22;10349;48.666;8.948;2023-10-19T00:31:45;11.00;99.90
20380;DHT22;10349;48.666;8.948;2023-10-19T00:34:11;11.00;99.90
20380;DHT22;10349;48.666;8.948;2023-10-19T00:36:38;11.00;99.90
20380;DHT22;10349;48.666;8.948;2023-10-19T00:39:04;11.10;99.90
20380;DHT22;10349;48.666;8.948;2023-10-19T00:41:39;11.00;99.90
20380;DHT22;10349;48.666;8.948;2023-10-19T00:44:06;11.10;99.90
20380;DHT22;10349;48.666;8.948;2023-10-19T00:46:38;11.00;99.90
20380;DHT22;10349;48.666;8.948;2023-10-19T00:49:09;11.10;99.90
20380;DHT22;10349;48.666;8.948;2023-10-19T00:51:51;11.00;99.90
20380;DHT22;10349;48.666;8.948;2023-10-19T00:54:23;11.10;99.90
20380;DHT22;10349;48.666;8.948;2023-10-19T00:57:09;11.00;99.90
20380;DHT22;10349;48.666;8.948;2023-10-19T00:59:39;11.00;99.90
20380;DHT22;10349;48.666;8.948;2023-10-19T01:02:20;11.00;99.90
20380;DHT22;10349;48.666;8.948;2023-10-19T01:04:54;11.00;99.90
20380;DHT22;10349;48.666;8.948;2023-10-19T01:07:30;11.10;99.90
20380;DHT22;10349;48.666;8.948;2023-10-19T01:09:58;11.10;99.90
20380;DHT22;10349;48.666;8.948;2023-10-19T01:12:26;11.20;99.90
20380;DHT22;10349;48.666;8.948;2023-10-19T01:15:15;11.20;99.90
20380;DHT22;10349;48.666;8.948;2023-10-19T01:17:55;11.20;99.90
20380;DHT22;10349;48.666;8.948;2023-10-19T01:20:26;11.20;99.90
20380;DHT22;10349;48.666;8.948;2023-10-19T01:23:06;11.30;99.90
20380;DHT22;10349;48.666;8.948;2023-10-19T01:25:49;11.20;99.90
20380;DHT22;10349;48.666;8.948;2023-10-19T01:28:34;11.30;99.90
20380;DHT22;10349;48.666;8.948;2023-10-19T01:31:06;11.30;99.90
20380;DHT22;10349;48.666;8.948;2023-10-19T01:33:32;11.20;99.90
20380;DHT22;10349;48.666;8.948;2023-10-19T01:36:00;11.20;99.90
20380;DHT22;10349;48.666;8.948;2023-10-19T01:38:44;11.20;99.90
20380;DHT22;10349;48.666;8.948;2023-10-19T01:41:13;11.10;99.90
20380;DHT22;10349;48.666;8.948;2023-10-19T01:43:43;11.10;99.90
20380;DHT22;10349;48.666;8.948;2023-10-19T01:46:10;11.20;99.90
20380;DHT22;10349;48.666;8.948;2023-10-19T01:48:40;11.20;99.90
20380;DHT22;10349;48.666;8.948;2023-10-19T01:51:10;11.20;99.90
20380;DHT22;10349;48.666;8.948;2023-10-19T01:53:37;11.20;99.90
20380;DHT22;10349;48.666;8.948;2023-10-19T01:56:09;11.20;99.90
20380;DHT22;10349;48.666;8.948;2023-10-19T01:58:37;11.30;99.90
20380;DHT22;10349;48.666;8.948;2023-10-19T02:01:04;11.20;99.90
20380;DHT22;10349;48.666;8.948;2023-10-19T02:03:39;11.20;99.90
20380;DHT22;10349;48.666;8.948;2023-10-19T02:06:12;11.20;99.90
20380;DHT22;10349;48.666;8.948;2023-10-19T02:08:52;11.20;99.90
20380;DHT22;10349;48.666;8.948;2023-10-19T02:11:22;11.20;99.90
20380;DHT22;10349;48.666;8.948;2023-10-19T02:13:49;11.20;99.90
20380;DHT22;10349;48.666;8.948;2023-10-19T02:16:16;11.10;99.90
20380;DHT22;10349;48.666;8.948;2023-10-19T02:18:45;11.10;99.90
20380;DHT22;10349;48.666;8.948;2023-10-19T02:21:10;11.00;99.90
20380;DHT22;10349;48.666;8.948;2023-10-19T02:23:40;11.00;99.90
20380;DHT22;10349;48.666;8.948;2023-10-19T02:26:08;11.00;99.90
20380;DHT22;10349;48.666;8.948;2023-10-19T02:28:33;11.00;99.90
20380;DHT22;10349;48.666;8.948;2023-10-19T02:31:05;11.10;99.90
20380;DHT22;10349;48.666;8.948;2023-10-19T02:33:42;11.10;99.90
20380;DHT22;10349;48.666;8.948;2023-10-19T02:36:13;11.10;99.90
20380;DHT22;10349;48.666;8.948;2023-10-19T02:38:40;11.10;99.90
20380;DHT22;10349;48.666;8.948;2023-10-19T02:41:08;11.10;99.90
20380;DHT22;10349;48.666;8.948;2023-10-19T02:43:36;11.10;99.90
20380;DHT22;10349;48.666;8.948;2023-10-19T02:46:03;11.10;99.90
20380;DHT22;10349;48.666;8.948;2023-10-19T02:48:29;11.10;99.90
20380;DHT22;10349;48.666;8.948;2023-10-19T02:50:55;11.00;99.90
20380;DHT22;10349;48.666;8.948;2023-10-19T02:53:21;11.00;99.90
20380;DHT22;10349;48.666;8.948;2023-10-19T02:55:48;11.00;99.90
20380;DHT22;10349;48.666;8.948;2023-10-19T02:58:18;11.00;99.90
20380;DHT22;10349;48.666;8.948;2023-10-19T03:00:44;11.00;99.90
20380;DHT22;10349;48.666;8.948;2023-10-19T03:03:11;11.00;99.90
20380;DHT22;10349;48.666;8.948;2023-10-19T03:05:37;11.00;99.90
20380;DHT22;10349;48.666;8.948;2023-10-19T03:08:04;11.00;99.90
20380;DHT22;10349;48.666;8.948;2023-10-19T03:10:31;11.00;99.90
20380;DHT22;10349;48.666;8.948;2023-10-19T03:13:08;11.00;99.90
20380;DHT22;10349;48.666;8.948;2023-10-19T03:15:34;11.00;99.90
20380;DHT22;10349;48.666;8.948;2023-10-19T03:18:01;11.00;99.90
20380;DHT22;10349;48.666;8.948;2023-10-19T03:20:29;11.00;99.90
20380;DHT22;10349;48.666;8.948;2023-10-19T03:22:59;11.00;99.90
20380;DHT22;10349;48.666;8.948;2023-10-19T03:25:27;11.00;99.90
20380;DHT22;10349;48.666;8.948;2023-10-19T03:28:12;11.00;99.90
20380;DHT22;10349;48.666;8.948;2023-10-19T03:30:39;10.90;99.90
20380;DHT22;10349;48.666;8.948;2023-10-19T03:33:06;10.90;99.90
20380;DHT22;10349;48.666;8.948;2023-10-19T03:35:36;10.90;99.90
20380;DHT22;10349;48.666;8.948;2023-10-19T03:38:03;10.90;99.90
20380;DHT22;10349;48.666;8.948;2023-10-19T03:40:34;10.90;99.90
20380;DHT22;10349;48.666;8.948;2023-10-19T03:43:04;10.90;99.90
20380;DHT22;10349;48.666;8.948;2023-10-19T03:45:40;10.90;99.90
20380;DHT22;10349;48.666;8.948;2023-10-19T03:48:10;10.80;99.90
20380;DHT22;10349;48.666;8.948;2023-10-19T03:50:40;10.80;99.90
20380;DHT22;10349;48.666;8.948;2023-10-19T03:53:05;10.70;99.90
20380;DHT22;10349;48.666;8.948;2023-10-19T03:55:32;10.70;99.90
20380;DHT22;10349;48.666;8.948;2023-10-19T03:58:03;10.70;99.90
20380;DHT22;10349;48.666;8.948;2023-10-19T04:00:30;10.70;99.90
20380;DHT22;10349;48.666;8.948;2023-10-19T04:02:59;10.70;99.90
20380;DHT22;10349;48.666;8.948;2023-10-19T04:05:24;10.70;99.90
20380;DHT22;10349;48.666;8.948;2023-10-19T04:07:52;10.80;99.90
20380;DHT22;10349;48.666;8.948;2023-10-19T04:10:24;10.90;99.90
20380;DHT22;10349;48.666;8.948;2023-10-19T04:12:55;11.00;99.90
20380;DHT22;10349;48.666;8.948;2023-10-19T04:15:21;11.00;99.90
20380;DHT22;10349;48.666;8.948;2023-10-19T04:17:48;11.10;99.90
20380;DHT22;10349;48.666;8.948;2023-10-19T04:20:18;11.10;99.90
20380;DHT22;10349;48.666;8.948;2023-10-19T04:22:44;11.10;99.90
20380;DHT22;10349;48.666;8.948;2023-10-19T04:25:11;11.10;99.90
20380;DHT22;10349;48.666;8.948;2023-10-19T04:27:44;11.10;99.90
20380;DHT22;10349;48.666;8.948;2023-10-19T04:30:14;11.20;99.90
20380;DHT22;10349;48.666;8.948;2023-10-19T04:32:47;11.10;99.90
20380;DHT22;10349;48.666;8.948;2023-10-19T04:35:13;11.10;99.90
20380;DHT22;10349;48.666;8.948;2023-10-19T04:37:40;11.00;99.90
20380;DHT22;10349;48.666;8.948;2023-10-19T04:40:09;11.00;99.90
20380;DHT22;10349;48.666;8.948;2023-10-19T04:42:35;10.90;99.90
20380;DHT22;10349;48.666;8.948;2023-10-19T04:45:04;10.90;99.90
20380;DHT22;10349;48.666;8.948;2023-10-19T04:47:31;10.80;99.90
20380;DHT22;10349;48.666;8.948;2023-10-19T04:50:00;10.80;99.90
20380;DHT22;10349;48.666;8.948;2023-10-19T04:52:26;10.70;99.90
20380;DHT22;10349;48.666;8.948;2023-10-19T04:54:52;10.70;99.90
20380;DHT22;10349;48.666;8.948;2023-10-19T04:57:19;10.60;99.90
20380;DHT22;10349;48.666;8.948;2023-10-19T04:59:48;10.70;99.90
20380;DHT22;10349;48.666;8.948;2023-10-19T05:02:13;10.70;99.90
20380;DHT22;10349;48.666;8.948;2023-10-19T05:04:39;10.80;99.90
20380;DHT22;10349;48.666;8.948;2023-10-19T05:07:06;10.90;99.90
20380;DHT22;10349;48.666;8.948;2023-10-19T05:09:37;11.10;99.90
20380;DHT22;10349;48.666;8.948;2023-10-19T05:12:05;11.20;99.90
20380;DHT22;10349;48.666;8.948;2023-10-19T05:14:38;11.20;99.90
20380;DHT22;10349;48.666;8.948;2023-10-19T05:17:05;11.30;99.90
20380;DHT22;10349;48.666;8.948;2023-10-19T05:19:31;11.30;99.90
20380;DHT22;10349;48.666;8.948;2023-10-19T05:21:59;11.30;99.90
20380;DHT22;10349;48.666;8.948;2023-10-19T05:24:25;11.30;99.90
20380;DHT22;10349;48.666;8.948;2023-10-19T05:26:51;11.40;99.90
20380;DHT22;10349;48.666;8.948;2023-10-19T05:29:19;11.40;99.90
20380;DHT22;10349;48.666;8.948;2023-10-19T05:31:45;11.50;99.90
20380;DHT22;10349;48.666;8.948;2023-10-19T05:34:11;11.50;99.90
20380;DHT22;10349;48.666;8.948;2023-10-19T05:36:36;11.60;99.90
20380;DHT22;10349;48.666;8.948;2023-10-19T05:39:02;11.60;99.90
20380;DHT22;10349;48.666;8.948;2023-10-19T05:41:30;11.60;99.90
20380;DHT22;10349;48.666;8.948;2023-10-19T05:43:58;11.70;99.90
20380;DHT22;10349;48.666;8.948;2023-10-19T05:46:23;11.70;99.90
20380;DHT22;10349;48.666;8.948;2023-10-19T05:48:51;11.70;99.90
20380;DHT22;10349;48.666;8.948;2023-10-19T05:51:16;11.70;99.90
20380;DHT22;10349;48.666;8.948;2023-10-19T05:53:47;11.60;99.90
20380;DHT22;10349;48.666;8.948;2023-10-19T05:56:14;11.70;99.90
20380;DHT22;10349;48.666;8.948;2023-10-19T05:58:42;11.70;99.90
20380;DHT22;10349;48.666;8.948;2023-10-19T06:01:08;11.80;99.90
20380;DHT22;10349;48.666;8.948;2023-10-19T06:03:34;11.80;99.90
20380;DHT22;10349;48.666;8.948;2023-10-19T06:06:00;11.70;99.90
20380;DHT22;10349;48.666;8.948;2023-10-19T06:08:26;11.80;99.90
20380;DHT22;10349;48.666;8.948;2023-10-19T06:10:54;11.80;99.90
20380;DHT22;10349;48.666;8.948;2023-10-19T06:13:20;11.90;99.90
20380;DHT22;10349;48.666;8.948;2023-10-19T06:15:48;11.80;99.90
20380;DHT22;10349;48.666;8.948;2023-10-19T06:18:14;11.80;99.90
20380;DHT22;10349;48.666;8.948;2023-10-19T06:20:44;11.80;99.90
20380;DHT22;10349;48.666;8.948;2023-10-19T06:23:10;11.80;99.90
20380;DHT22;10349;48.666;8.948;2023-10-19T06:25:38;11.80;99.90
20380;DHT22;10349;48.666;8.948;2023-10-19T06:28:06;11.80;99.90
20380;DHT22;10349;48.666;8.948;2023-10-19T06:30:33;11.90;99.90
20380;DHT22;10349;48.666;8.948;2023-10-19T06:33:00;11.90;99.90
20380;DHT22;10349;48.666;8.948;2023-10-19T06:35:31;11.90;99.90
20380;DHT22;10349;48.666;8.948;2023-10-19T06:38:00;11.90;99.90
20380;DHT22;10349;48.666;8.948;2023-10-19T06:40:27;12.00;99.90
20380;DHT22;10349;48.666;8.948;2023-10-19T06:42:58;11.90;99.90
20380;DHT22;10349;48.666;8.948;2023-10-19T06:45:24;11.90;99.90
20380;DHT22;10349;48.666;8.948;2023-10-19T06:47:55;11.90;99.90
20380;DHT22;10349;48.666;8.948;2023-10-19T06:50:22;11.90;99.90
20380;DHT22;10349;48.666;8.948;2023-10-19T06:52:48;12.00;99.90
20380;DHT22;10349;48.666;8.948;2023-10-19T06:55:16;12.00;99.90
20380;DHT22;10349;48.666;8.948;2023-10-19T06:57:50;12.00;99.90
20380;DHT22;10349;48.666;8.948;2023-10-19T07:00:18;12.00;99.90
20380;DHT22;10349;48.666;8.948;2023-10-19T07:02:50;12.00;99.90
20380;DHT22;10349;48.666;8.948;2023-10-19T07:05:19;12.00;99.90
20380;DHT22;10349;48.666;8.948;2023-10-19T07:07:51;12.00;99.90
20380;DHT22;10349;48.666;8.948;2023-10-19T07:10:18;12.00;99.90
20380;DHT22;10349;48.666;8.948;2023-10-19T07:12:50;12.00;99.90
20380;DHT22;10349;48.666;8.948;2023-10-19T07:15:16;12.00;99.90
20380;DHT22;10349;48.666;8.948;2023-10-19T07:17:46;12.10;99.90
20380;DHT22;10349;48.666;8.948;2023-10-19T07:20:15;12.10;99.90
20380;DHT22;10349;48.666;8.948;2023-10-19T07:23:05;12.10;99.90
20380;DHT22;10349;48.666;8.948;2023-10-19T07:25:45;12.10;99.90
20380;DHT22;10349;48.666;8.948;2023-10-19T07:28:15;12.10;99.90
20380;DHT22;10349;48.666;8.948;2023-10-19T07:30:42;12.20;99.90
20380;DHT22;10349;48.666;8.948;2023-10-19T07:33:09;12.20;99.90
20380;DHT22;10349;48.666;8.948;2023-10-19T07:35:36;12.30;99.90
20380;DHT22;10349;48.666;8.948;2023-10-19T07:38:05;12.30;99.90
20380;DHT22;10349;48.666;8.948;2023-10-19T07:40:36;12.40;99.90
20380;DHT22;10349;48.666;8.948;2023-10-19T07:43:02;12.40;99.90
20380;DHT22;10349;48.666;8.948;2023-10-19T07:45:29;12.40;99.90
20380;DHT22;10349;48.666;8.948;2023-10-19T07:47:57;12.40;99.90
20380;DHT22;10349;48.666;8.948;2023-10-19T07:50:22;12.40;99.90
20380;DHT22;10349;48.666;8.948;2023-10-19T07:52:52;12.40;99.90
20380;DHT22;10349;48.666;8.948;2023-10-19T07:55:20;12.50;99.90
20380;DHT22;10349;48.666;8.948;2023-10-19T07:57:49;12.50;99.90
20380;DHT22;10349;48.666;8.948;2023-10-19T08:00:18;12.60;99.90
20380;DHT22;10349;48.666;8.948;2023-10-19T08:02:44;12.70;99.90
20380;DHT22;10349;48.666;8.948;2023-10-19T08:05:13;12.70;99.90
20380;DHT22;10349;48.666;8.948;2023-10-19T08:07:40;12.80;99.90
20380;DHT22;10349;48.666;8.948;2023-10-19T08:10:09;12.90;99.90
20380;DHT22;10349;48.666;8.948;2023-10-19T08:12:37;12.90;99.90
20380;DHT22;10349;48.666;8.948;2023-10-19T08:15:03;13.00;99.90
20380;DHT22;10349;48.666;8.948;2023-10-19T08:17:30;13.00;99.90
20380;DHT22;10349;48.666;8.948;2023-10-19T08:19:56;13.10;99.90
20380;DHT22;10349;48.666;8.948;2023-10-19T08:22:23;13.20;99.90
20380;DHT22;10349;48.666;8.948;2023-10-19T08:24:49;13.30;99.90
20380;DHT22;10349;48.666;8.948;2023-10-19T08:27:15;13.30;99.90
20380;DHT22;10349;48.666;8.948;2023-10-19T08:29:42;13.40;99.90
20380;DHT22;10349;48.666;8.948;2023-10-19T08:32:08;13.40;99.90
20380;DHT22;10349;48.666;8.948;2023-10-19T08:34:35;13.50;99.90
20380;DHT22;10349;48.666;8.948;2023-10-19T08:37:05;13.50;99.90
20380;DHT22;10349;48.666;8.948;2023-10-19T08:39:32;13.60;99.90
20380;DHT22;10349;48.666;8.948;2023-10-19T08:42:05;13.60;99.90
20380;DHT22;10349;48.666;8.948;2023-10-19T08:44:32;13.70;99.90
20380;DHT22;10349;48.666;8.948;2023-10-19T08:46:59;13.80;99.90
20380;DHT22;10349;48.666;8.948;2023-10-19T08:49:25;13.80;99.90
20380;DHT22;10349;48.666;8.948;2023-10-19T08:51:54;13.90;99.90
20380;DHT22;10349;48.666;8.948;2023-10-19T08:54:20;14.00;99.90
20380;DHT22;10349;48.666;8.948;2023-10-19T08:56:47;14.10;99.90
20380;DHT22;10349;48.666;8.948;2023-10-19T08:59:13;14.10;99.90
20380;DHT22;10349;48.666;8.948;2023-10-19T09:01:42;14.20;99.90
20380;DHT22;10349;48.666;8.948;2023-10-19T09:04:11;14.30;99.90
20380;DHT22;10349;48.666;8.948;2023-10-19T09:06:38;14.30;99.90
20380;DHT22;10349;48.666;8.948;2023-10-19T09:09:11;14.40;99.90
20380;DHT22;10349;48.666;8.948;2023-10-19T09:11:45;14.40;99.90
20380;DHT22;10349;48.666;8.948;2023-10-19T09:14:16;14.60;99.90
20380;DHT22;10349;48.666;8.948;2023-10-19T09:16:56;14.60;99.90
20380;DHT22;10349;48.666;8.948;2023-10-19T09:22:08;14.90;99.90
20380;DHT22;10349;48.666;8.948;2023-10-19T09:24:43;15.00;99.90
20380;DHT22;10349;48.666;8.948;2023-10-19T09:27:08;15.00;99.90
20380;DHT22;10349;48.666;8.948;2023-10-19T09:29:34;15.10;99.90
20380;DHT22;10349;48.666;8.948;2023-10-19T09:32:00;15.20;99.90
20380;DHT22;10349;48.666;8.948;2023-10-19T09:34:31;15.30;99.90
20380;DHT22;10349;48.666;8.948;2023-10-19T09:37:04;15.30;99.90
20380;DHT22;10349;48.666;8.948;2023-10-19T09:39:31;15.40;99.90
20380;DHT22;10349;48.666;8.948;2023-10-19T09:42:06;15.40;99.90
20380;DHT22;10349;48.666;8.948;2023-10-19T09:44:44;15.50;99.90
20380;DHT22;10349;48.666;8.948;2023-10-19T09:47:12;15.50;99.90
20380;DHT22;10349;48.666;8.948;2023-10-19T09:49:41;15.50;99.90
20380;DHT22;10349;48.666;8.948;2023-10-19T09:52:09;15.50;99.90
20380;DHT22;10349;48.666;8.948;2023-10-19T09:54:44;15.50;99.90
20380;DHT22;10349;48.666;8.948;2023-10-19T09:57:16;15.40;99.90
20380;DHT22;10349;48.666;8.948;2023-10-19T09:59:46;15.40;99.90
20380;DHT22;10349;48.666;8.948;2023-10-19T10:02:13;15.40;99.90
20380;DHT22;10349;48.666;8.948;2023-10-19T10:04:41;15.40;99.90
20380;DHT22;10349;48.666;8.948;2023-10-19T10:07:08;15.40;99.90
20380;DHT22;10349;48.666;8.948;2023-10-19T10:09:42;15.40;99.90
20380;DHT22;10349;48.666;8.948;2023-10-19T10:12:30;15.40;99.90
20380;DHT22;10349;48.666;8.948;2023-10-19T10:15:04;15.50;99.90
20380;DHT22;10349;48.666;8.948;2023-10-19T10:17:34;15.50;99.90
20380;DHT22;10349;48.666;8.948;2023-10-19T10:22:44;15.50;99.90
20380;DHT22;10349;48.666;8.948;2023-10-19T10:25:27;15.50;99.90
20380;DHT22;10349;48.666;8.948;2023-10-19T10:27:55;15.50;99.90
20380;DHT22;10349;48.666;8.948;2023-10-19T10:30:21;15.60;99.90
20380;DHT22;10349;48.666;8.948;2023-10-19T10:32:49;15.60;99.90
20380;DHT22;10349;48.666;8.948;2023-10-19T10:38:11;15.60;99.90
20380;DHT22;10349;48.666;8.948;2023-10-19T10:40:47;15.60;99.90
20380;DHT22;10349;48.666;8.948;2023-10-19T10:43:13;15.60;99.90
20380;DHT22;10349;48.666;8.948;2023-10-19T10:45:39;15.70;99.90
20380;DHT22;10349;48.666;8.948;2023-10-19T10:48:18;15.70;99.90
20380;DHT22;10349;48.666;8.948;2023-10-19T10:50:47;15.70;99.90
20380;DHT22;10349;48.666;8.948;2023-10-19T10:53:14;15.70;99.90
20380;DHT22;10349;48.666;8.948;2023-10-19T10:55:43;15.70;99.90
20380;DHT22;10349;48.666;8.948;2023-10-19T10:58:09;15.60;99.90
20380;DHT22;10349;48.666;8.948;2023-10-19T11:00:42;15.60;99.90
20380;DHT22;10349;48.666;8.948;2023-10-19T11:03:08;15.60;99.90
20380;DHT22;10349;48.666;8.948;2023-10-19T11:05:36;15.50;99.90
20380;DHT22;10349;48.666;8.948;2023-10-19T11:08:16;15.50;99.90
20380;DHT22;10349;48.666;8.948;2023-10-19T11:10:44;15.50;99.90
20380;DHT22;10349;48.666;8.948;2023-10-19T11:13:16;15.50;99.90
20380;DHT22;10349;48.666;8.948;2023-10-19T11:15:53;15.40;99.90
20380;DHT22;10349;48.666;8.948;2023-10-19T11:18:38;15.40;99.90
20380;DHT22;10349;48.666;8.948;2023-10-19T11:21:13;15.30;99.90
20380;DHT22;10349;48.666;8.948;2023-10-19T11:23:48;15.30;99.90
20380;DHT22;10349;48.666;8.948;2023-10-19T11:26:16;15.20;99.90
20380;DHT22;10349;48.666;8.948;2023-10-19T11:28:42;15.20;99.90
20380;DHT22;10349;48.666;8.948;2023-10-19T11:31:19;15.20;99.90
20380;DHT22;10349;48.666;8.948;2023-10-19T11:33:46;15.20;99.90
20380;DHT22;10349;48.666;8.948;2023-10-19T11:36:16;15.10;99.90
20380;DHT22;10349;48.666;8.948;2023-10-19T11:38:44;15.10;99.90
20380;DHT22;10349;48.666;8.948;2023-10-19T11:41:14;15.20;99.90
20380;DHT22;10349;48.666;8.948;2023-10-19T11:43:41;15.20;99.90
20380;DHT22;10349;48.666;8.948;2023-10-19T11:46:09;15.30;99.90
20380;DHT22;10349;48.666;8.948;2023-10-19T11:48:36;15.30;99.90
20380;DHT22;10349;48.666;8.948;2023-10-19T11:51:05;15.30;99.90
20380;DHT22;10349;48.666;8.948;2023-10-19T11:53:36;15.30;99.90
20380;DHT22;10349;48.666;8.948;2023-10-19T11:56:06;15.40;99.90
20380;DHT22;10349;48.666;8.948;2023-10-19T11:58:37;15.40;99.90
20380;DHT22;10349;48.666;8.948;2023-10-19T12:01:11;15.40;99.90
20380;DHT22;10349;48.666;8.948;2023-10-19T12:03:43;15.30;99.90
20380;DHT22;10349;48.666;8.948;2023-10-19T12:06:14;15.20;99.90
20380;DHT22;10349;48.666;8.948;2023-10-19T12:08:46;15.10;99.90
20380;DHT22;10349;48.666;8.948;2023-10-19T12:11:13;15.20;99.90
20380;DHT22;10349;48.666;8.948;2023-10-19T12:13:46;15.20;99.90
20380;DHT22;10349;48.666;8.948;2023-10-19T12:16:12;15.20;99.90
20380;DHT22;10349;48.666;8.948;2023-10-19T12:18:39;15.20;99.90
20380;DHT22;10349;48.666;8.948;2023-10-19T12:21:06;15.30;99.90
20380;DHT22;10349;48.666;8.948;2023-10-19T12:23:43;15.20;99.90
20380;DHT22;10349;48.666;8.948;2023-10-19T12:26:09;15.20;99.90
20380;DHT22;10349;48.666;8.948;2023-10-19T12:28:40;15.20;99.90
20380;DHT22;10349;48.666;8.948;2023-10-19T12:31:07;15.20;99.90
20380;DHT22;10349;48.666;8.948;2023-10-19T12:33:37;15.10;99.90
20380;DHT22;10349;48.666;8.948;2023-10-19T12:36:05;15.20;99.90
20380;DHT22;10349;48.666;8.948;2023-10-19T12:38:50;15.20;99.90
20380;DHT22;10349;48.666;8.948;2023-10-19T12:41:19;15.20;99.90
20380;DHT22;10349;48.666;8.948;2023-10-19T12:43:45;15.10;99.90
20380;DHT22;10349;48.666;8.948;2023-10-19T12:46:14;15.10;99.90
20380;DHT22;10349;48.666;8.948;2023-10-19T12:48:43;15.10;99.90
20380;DHT22;10349;48.666;8.948;2023-10-19T12:51:08;15.10;99.90
20380;DHT22;10349;48.666;8.948;2023-10-19T12:53:37;15.20;99.90
20380;DHT22;10349;48.666;8.948;2023-10-19T12:56:04;15.10;99.90
20380;DHT22;10349;48.666;8.948;2023-10-19T12:58:31;15.10;99.90
20380;DHT22;10349;48.666;8.948;2023-10-19T13:01:03;15.20;99.90
20380;DHT22;10349;48.666;8.948;2023-10-19T13:03:30;15.20;99.90
20380;DHT22;10349;48.666;8.948;2023-10-19T13:06:01;15.20;99.90
20380;DHT22;10349;48.666;8.948;2023-10-19T13:08:30;15.20;99.90
20380;DHT22;10349;48.666;8.948;2023-10-19T13:10:56;15.30;99.90
20380;DHT22;10349;48.666;8.948;2023-10-19T13:13:21;15.30;99.90
20380;DHT22;10349;48.666;8.948;2023-10-19T13:15:50;15.40;99.90
20380;DHT22;10349;48.666;8.948;2023-10-19T13:18:16;15.40;99.90
20380;DHT22;10349;48.666;8.948;2023-10-19T13:20:53;15.40;99.90
20380;DHT22;10349;48.666;8.948;2023-10-19T13:23:21;15.30;99.90
20380;DHT22;10349;48.666;8.948;2023-10-19T13:25:48;15.40;99.90
20380;DHT22;10349;48.666;8.948;2023-10-19T13:28:23;15.40;99.90
20380;DHT22;10349;48.666;8.948;2023-10-19T13:30:54;15.40;99.90
20380;DHT22;10349;48.666;8.948;2023-10-19T13:33:20;15.40;99.90
20380;DHT22;10349;48.666;8.948;2023-10-19T13:35:47;15.40;99.90
20380;DHT22;10349;48.666;8.948;2023-10-19T13:38:17;15.50;99.90
20380;DHT22;10349;48.666;8.948;2023-10-19T13:40:45;15.40;99.90
20380;DHT22;10349;48.666;8.948;2023-10-19T13:43:12;15.50;99.90
20380;DHT22;10349;48.666;8.948;2023-10-19T13:45:42;15.60;99.90
20380;DHT22;10349;48.666;8.948;2023-10-19T13:48:08;15.60;99.90
20380;DHT22;10349;48.666;8.948;2023-10-19T13:50:46;15.50;99.90
20380;DHT22;10349;48.666;8.948;2023-10-19T13:53:20;15.60;99.90
20380;DHT22;10349;48.666;8.948;2023-10-19T13:55:46;15.60;99.90
20380;DHT22;10349;48.666;8.948;2023-10-19T13:58:11;15.60;99.90
20380;DHT22;10349;48.666;8.948;2023-10-19T14:00:41;15.70;99.90
20380;DHT22;10349;48.666;8.948;2023-10-19T14:03:07;15.60;99.90
20380;DHT22;10349;48.666;8.948;2023-10-19T14:05:44;15.60;99.90
20380;DHT22;10349;48.666;8.948;2023-10-19T14:08:17;15.60;99.90
20380;DHT22;10349;48.666;8.948;2023-10-19T14:10:43;15.60;99.90
20380;DHT22;10349;48.666;8.948;2023-10-19T14:13:09;15.70;99.90
20380;DHT22;10349;48.666;8.948;2023-10-19T14:15:37;15.60;99.90
20380;DHT22;10349;48.666;8.948;2023-10-19T14:18:03;15.70;99.90
20380;DHT22;10349;48.666;8.948;2023-10-19T14:20:30;15.60;99.90
20380;DHT22;10349;48.666;8.948;2023-10-19T14:22:57;15.60;99.90
20380;DHT22;10349;48.666;8.948;2023-10-19T14:25:24;15.70;99.90
20380;DHT22;10349;48.666;8.948;2023-10-19T14:27:51;15.60;99.90
20380;DHT22;10349;48.666;8.948;2023-10-19T14:30:28;15.60;99.90
20380;DHT22;10349;48.666;8.948;2023-10-19T14:32:54;15.60;99.90
20380;DHT22;10349;48.666;8.948;2023-10-19T14:35:23;15.50;99.90
20380;DHT22;10349;48.666;8.948;2023-10-19T14:37:50;15.50;99.90
20380;DHT22;10349;48.666;8.948;2023-10-19T14:40:19;15.50;99.90
20380;DHT22;10349;48.666;8.948;2023-10-19T14:42:50;15.50;99.90
20380;DHT22;10349;48.666;8.948;2023-10-19T14:45:21;15.50;99.90
20380;DHT22;10349;48.666;8.948;2023-10-19T14:47:52;15.40;99.90
20380;DHT22;10349;48.666;8.948;2023-10-19T14:50:20;15.40;99.90
20380;DHT22;10349;48.666;8.948;2023-10-19T14:52:47;15.50;99.90
20380;DHT22;10349;48.666;8.948;2023-10-19T14:55:15;15.50;99.90
20380;DHT22;10349;48.666;8.948;2023-10-19T14:57:42;15.40;99.90
20380;DHT22;10349;48.666;8.948;2023-10-19T15:00:10;15.50;99.90
20380;DHT22;10349;48.666;8.948;2023-10-19T15:02:55;15.40;99.90
20380;DHT22;10349;48.666;8.948;2023-10-19T15:05:23;15.40;99.90
20380;DHT22;10349;48.666;8.948;2023-10-19T15:07:51;15.40;99.90
20380;DHT22;10349;48.666;8.948;2023-10-19T15:10:24;15.40;99.90
20380;DHT22;10349;48.666;8.948;2023-10-19T15:12:59;15.30;99.90
20380;DHT22;10349;48.666;8.948;2023-10-19T15:15:27;15.30;99.90
20380;DHT22;10349;48.666;8.948;2023-10-19T15:17:53;15.30;99.90
20380;DHT22;10349;48.666;8.948;2023-10-19T15:20:30;15.40;99.90
20380;DHT22;10349;48.666;8.948;2023-10-19T15:22:56;15.30;99.90
20380;DHT22;10349;48.666;8.948;2023-10-19T15:25:23;15.30;99.90
20380;DHT22;10349;48.666;8.948;2023-10-19T15:27:50;15.20;99.90
20380;DHT22;10349;48.666;8.948;2023-10-19T15:30:17;15.20;99.90
20380;DHT22;10349;48.666;8.948;2023-10-19T15:32:47;15.20;99.90
20380;DHT22;10349;48.666;8.948;2023-10-19T15:35:15;15.20;99.90
20380;DHT22;10349;48.666;8.948;2023-10-19T15:37:48;15.20;99.90
20380;DHT22;10349;48.666;8.948;2023-10-19T15:40:16;15.10;99.90
20380;DHT22;10349;48.666;8.948;2023-10-19T15:42:43;15.10;99.90
20380;DHT22;10349;48.666;8.948;2023-10-19T15:45:10;15.00;99.90
20380;DHT22;10349;48.666;8.948;2023-10-19T15:47:40;14.90;99.90
20380;DHT22;10349;48.666;8.948;2023-10-19T15:50:07;14.90;99.90
20380;DHT22;10349;48.666;8.948;2023-10-19T15:52:39;14.80;99.90